createdAt,value
2023-05-01T00:00:42.546Z,948.1050
2023-05-01T00:01:42.654Z,948.0872
2023-05-01T00:02:42.921Z,948.0695
2023-05-01T00:03:43.180Z,948.0817
2023-05-01T00:04:43.441Z,948.0706
2023-05-01T00:05:43.542Z,948.0684
2023-05-01T00:06:43.684Z,948.0444
2023-05-01T00:07:43.816Z,948.0378
2023-05-01T00:08:43.932Z,948.0217
2023-05-01T00:09:44.088Z,948.0383
2023-05-01T00:10:44.189Z,948.0300
2023-05-01T00:11:44.327Z,948.0222
2023-05-01T00:12:44.469Z,948.0156
2023-05-01T00:13:44.573Z,948.0156
2023-05-01T00:14:44.684Z,948.0095
2023-05-01T00:15:44.812Z,948.0050
2023-05-01T00:16:44.979Z,947.9984
2023-05-01T00:17:45.193Z,947.9894
2023-05-01T00:18:45.309Z,947.9844
2023-05-01T00:19:45.401Z,947.9939
2023-05-01T00:20:45.501Z,947.9944
2023-05-01T00:21:45.694Z,947.9950
2023-05-01T00:22:45.799Z,947.9850
2023-05-01T00:23:45.939Z,947.9833
2023-05-01T00:24:46.045Z,947.9772
2023-05-01T00:25:46.188Z,947.9866
2023-05-01T00:26:46.366Z,947.9955
2023-05-01T00:27:46.471Z,947.9905
2023-05-01T00:28:46.582Z,947.9833
2023-05-01T00:29:46.696Z,947.9839
2023-05-01T00:30:46.863Z,947.9916
2023-05-01T00:31:47.076Z,948.0061
2023-05-01T00:32:47.325Z,948.0022
2023-05-01T00:33:47.393Z,948.0056
2023-05-01T00:34:47.482Z,948.0034
2023-05-01T00:35:47.601Z,948.0034
2023-05-01T00:36:49.707Z,948.0072
2023-05-01T00:37:50.100Z,948.0028
2023-05-01T00:38:50.227Z,948.0000
2023-05-01T00:39:50.330Z,948.0045
2023-05-01T00:40:50.476Z,948.0050
2023-05-01T00:41:50.622Z,948.0022
2023-05-01T00:42:50.747Z,947.9995
2023-05-01T00:43:50.906Z,948.0005
2023-05-01T00:44:51.005Z,947.9995
2023-05-01T00:45:51.164Z,948.0050
2023-05-01T00:46:51.259Z,947.9966
2023-05-01T00:47:51.445Z,947.9883
2023-05-01T00:48:51.547Z,947.9900
2023-05-01T00:49:51.659Z,947.9883
2023-05-01T00:50:51.767Z,947.9844
2023-05-01T00:51:51.944Z,947.9667
2023-05-01T00:52:52.032Z,947.9717
2023-05-01T00:53:52.144Z,947.9672
2023-05-01T00:54:52.287Z,947.9595
2023-05-01T00:55:52.421Z,947.9700
2023-05-01T00:56:52.566Z,947.9900
2023-05-01T00:57:52.714Z,947.9955
2023-05-01T00:58:52.829Z,947.9855
2023-05-01T00:59:53.000Z,947.9700
2023-05-01T01:00:53.200Z,947.9700
2023-05-01T01:01:55.678Z,947.9561
2023-05-01T01:02:53.467Z,947.9550
2023-05-01T01:03:53.642Z,947.9512
2023-05-01T01:04:53.727Z,947.9589
2023-05-01T01:05:53.851Z,947.9428
2023-05-01T01:06:53.953Z,947.9406
2023-05-01T01:07:54.079Z,947.9461
2023-05-01T01:08:54.216Z,947.9089
2023-05-01T01:09:54.414Z,947.8956
2023-05-01T01:10:54.530Z,947.8789
2023-05-01T01:11:54.636Z,947.8739
2023-05-01T01:12:54.773Z,947.8800
2023-05-01T01:13:54.918Z,947.8555
2023-05-01T01:14:55.015Z,947.8517
2023-05-01T01:15:55.133Z,947.8500
2023-05-01T01:16:55.286Z,947.8478
2023-05-01T01:17:55.405Z,947.8478
2023-05-01T01:18:55.552Z,947.8300
2023-05-01T01:19:55.955Z,947.8456
2023-05-01T01:20:56.203Z,947.8539
2023-05-01T01:21:56.334Z,947.8517
2023-05-01T01:22:56.447Z,947.8478
2023-05-01T01:23:56.578Z,947.8450
2023-05-01T01:24:56.766Z,947.8494
2023-05-01T01:25:56.863Z,947.8522
2023-05-01T01:26:56.988Z,947.8522
2023-05-01T01:27:57.117Z,947.8411
2023-05-01T01:28:57.217Z,947.8472
2023-05-01T01:29:57.638Z,947.8489
2023-05-01T01:30:58.067Z,947.8256
2023-05-01T01:31:58.174Z,947.8094
2023-05-01T01:32:58.346Z,947.8089
2023-05-01T01:33:58.460Z,947.8184
2023-05-01T01:34:58.571Z,947.8172
2023-05-01T01:35:58.722Z,947.8217
2023-05-01T01:36:58.887Z,947.8217
2023-05-01T01:37:59.020Z,947.8061
2023-05-01T01:38:59.143Z,947.7872
2023-05-01T01:39:59.281Z,947.7900
2023-05-01T01:40:59.425Z,947.7989
2023-05-01T01:41:59.616Z,947.8105
2023-05-01T01:42:59.809Z,947.7950
2023-05-01T01:43:59.905Z,947.8044
2023-05-01T01:45:00.050Z,947.8061
2023-05-01T01:46:00.220Z,947.8078
2023-05-01T01:47:00.306Z,947.7983
2023-05-01T01:48:00.539Z,947.8061
2023-05-01T01:49:00.647Z,947.8050
2023-05-01T01:50:00.774Z,947.8016
2023-05-01T01:51:00.904Z,947.8066
2023-05-01T01:52:01.036Z,947.8066
2023-05-01T01:53:01.145Z,947.8089
2023-05-01T01:54:01.266Z,947.8039
2023-05-01T01:55:01.382Z,947.8078
2023-05-01T01:56:03.574Z,947.8150
2023-05-01T01:57:03.947Z,947.8039
2023-05-01T01:58:04.083Z,947.8028
2023-05-01T01:59:04.223Z,947.7972
2023-05-01T02:00:04.321Z,947.8000
2023-05-01T02:01:04.510Z,947.7717
2023-05-01T02:02:04.753Z,947.7678
2023-05-01T02:03:05.005Z,947.7411
2023-05-01T02:04:05.105Z,947.7316
2023-05-01T02:05:05.225Z,947.7311
2023-05-01T02:06:05.367Z,947.7111
2023-05-01T02:07:05.520Z,947.6978
2023-05-01T02:08:05.650Z,947.6984
2023-05-01T02:09:05.786Z,947.7061
2023-05-01T02:10:06.051Z,947.7078
2023-05-01T02:11:06.131Z,947.7000
2023-05-01T02:12:06.237Z,947.6984
2023-05-01T02:13:06.375Z,947.6884
2023-05-01T02:14:06.509Z,947.6811
2023-05-01T02:15:06.626Z,947.6822
2023-05-01T02:16:06.828Z,947.6861
2023-05-01T02:17:06.900Z,947.6761
2023-05-01T02:18:07.055Z,947.6744
2023-05-01T02:19:07.183Z,947.6694
2023-05-01T02:20:07.304Z,947.6628
2023-05-01T02:21:07.443Z,947.6544
2023-05-01T02:22:07.555Z,947.6583
2023-05-01T02:23:07.714Z,947.6567
2023-05-01T02:24:07.832Z,947.6583
2023-05-01T02:25:07.973Z,947.6583
2023-05-01T02:26:08.081Z,947.6583
2023-05-01T02:27:08.224Z,947.6567
2023-05-01T02:28:08.330Z,947.6605
2023-05-01T02:29:08.478Z,947.6556
2023-05-01T02:30:08.582Z,947.6467
2023-05-01T02:31:08.715Z,947.6234
2023-05-01T02:32:08.875Z,947.6128
2023-05-01T02:33:09.062Z,947.6211
2023-05-01T02:34:09.172Z,947.6295
2023-05-01T02:35:09.306Z,947.6039
2023-05-01T02:36:09.409Z,947.6033
2023-05-01T02:37:09.545Z,947.6066
2023-05-01T02:38:09.673Z,947.6100
2023-05-01T02:39:09.812Z,947.5956
2023-05-01T02:40:09.922Z,947.5800
2023-05-01T02:41:10.033Z,947.5578
2023-05-01T02:42:10.164Z,947.5572
2023-05-01T02:43:10.355Z,947.5372
2023-05-01T02:44:10.452Z,947.5234
2023-05-01T02:45:10.610Z,947.5228
2023-05-01T02:46:10.765Z,947.5367
2023-05-01T02:47:10.895Z,947.5461
2023-05-01T02:48:11.097Z,947.5405
2023-05-01T02:49:11.213Z,947.5184
2023-05-01T02:50:11.340Z,947.5150
2023-05-01T02:51:11.455Z,947.5211
2023-05-01T02:52:11.566Z,947.5278
2023-05-01T02:53:11.767Z,947.5311
2023-05-01T02:54:11.879Z,947.5300
2023-05-01T02:55:12.056Z,947.5466
2023-05-01T02:56:12.186Z,947.5472
2023-05-01T02:57:12.374Z,947.5561
2023-05-01T02:58:12.475Z,947.5372
2023-05-01T02:59:12.627Z,947.5444
2023-05-01T03:00:12.792Z,947.5511
2023-05-01T03:01:12.975Z,947.5505
2023-05-01T03:02:13.086Z,947.5528
2023-05-01T03:03:13.271Z,947.5500
2023-05-01T03:04:13.450Z,947.5306
2023-05-01T03:05:13.569Z,947.5234
2023-05-01T03:06:13.794Z,947.5111
2023-05-01T03:07:13.887Z,947.5145
2023-05-01T03:08:13.992Z,947.4995
2023-05-01T03:09:14.126Z,947.4950
2023-05-01T03:10:14.254Z,947.4883
2023-05-01T03:11:14.410Z,947.4767
2023-05-01T03:12:14.517Z,947.4772
2023-05-01T03:13:14.660Z,947.4861
2023-05-01T03:14:14.767Z,947.4789
2023-05-01T03:15:14.962Z,947.4661
2023-05-01T03:16:15.158Z,947.4584
2023-05-01T03:17:15.268Z,947.4467
2023-05-01T03:18:15.397Z,947.4411
2023-05-01T03:19:15.558Z,947.4434
2023-05-01T03:20:15.686Z,947.4461
2023-05-01T03:21:15.824Z,947.4350
2023-05-01T03:22:15.928Z,947.4294
2023-05-01T03:23:19.197Z,947.4305
2023-05-01T03:24:16.107Z,947.4406
2023-05-01T03:25:16.231Z,947.4500
2023-05-01T03:26:16.364Z,947.4406
2023-05-01T03:27:16.491Z,947.4355
2023-05-01T03:28:16.628Z,947.4350
2023-05-01T03:29:16.768Z,947.4161
2023-05-01T03:30:16.914Z,947.4061
2023-05-01T03:31:17.049Z,947.3972
2023-05-01T03:32:17.258Z,947.4056
2023-05-01T03:33:17.406Z,947.4105
2023-05-01T03:34:17.527Z,947.4100
2023-05-01T03:35:17.750Z,947.4111
2023-05-01T03:36:17.866Z,947.4116
2023-05-01T03:37:18.028Z,947.4083
2023-05-01T03:38:18.150Z,947.4033
2023-05-01T03:39:18.306Z,947.4039
2023-05-01T03:40:18.437Z,947.4011
2023-05-01T03:41:18.576Z,947.4061
2023-05-01T03:42:18.770Z,947.3989
2023-05-01T03:43:18.892Z,947.3722
2023-05-01T03:44:19.054Z,947.3650
2023-05-01T03:45:19.173Z,947.3683
2023-05-01T03:46:19.329Z,947.3528
2023-05-01T03:47:19.439Z,947.3511
2023-05-01T03:48:19.595Z,947.3550
2023-05-01T03:49:19.715Z,947.3778
2023-05-01T03:50:19.835Z,947.3867
2023-05-01T03:51:19.999Z,947.3911
2023-05-01T03:52:20.171Z,947.3834
2023-05-01T03:53:20.315Z,947.3950
2023-05-01T03:54:20.502Z,947.3834
2023-05-01T03:55:20.613Z,947.3694
2023-05-01T03:56:20.754Z,947.3678
2023-05-01T03:57:20.941Z,947.3594
2023-05-01T03:58:21.060Z,947.3461
2023-05-01T03:59:21.199Z,947.3472
2023-05-01T04:00:21.324Z,947.3428
2023-05-01T04:01:21.458Z,947.3361
2023-05-01T04:02:21.718Z,947.3472
2023-05-01T04:03:22.107Z,947.3489
2023-05-01T04:04:22.251Z,947.3356
2023-05-01T04:05:22.377Z,947.3533
2023-05-01T04:06:22.548Z,947.3439
2023-05-01T04:07:22.678Z,947.3622
2023-05-01T04:08:22.782Z,947.3672
2023-05-01T04:09:22.909Z,947.3806
2023-05-01T04:10:23.028Z,947.3878
2023-05-01T04:11:23.155Z,947.3867
2023-05-01T04:12:23.292Z,947.3917
2023-05-01T04:13:23.412Z,947.3900
2023-05-01T04:14:23.561Z,947.3978
2023-05-01T04:15:23.710Z,947.4061
2023-05-01T04:16:23.844Z,947.4033
2023-05-01T04:17:23.982Z,947.4028
2023-05-01T04:18:24.110Z,947.4122
2023-05-01T04:19:24.230Z,947.4000
2023-05-01T04:20:24.369Z,947.3945
2023-05-01T04:21:24.484Z,947.3945
2023-05-01T04:22:24.602Z,947.4056
2023-05-01T04:23:24.919Z,947.3983
2023-05-01T04:24:25.002Z,947.4155
2023-05-01T04:25:25.152Z,947.3972
2023-05-01T04:26:25.275Z,947.4083
2023-05-01T04:27:25.436Z,947.4155
2023-05-01T04:28:25.553Z,947.4166
2023-05-01T04:29:25.679Z,947.4056
2023-05-01T04:30:25.821Z,947.4061
2023-05-01T04:31:25.965Z,947.4044
2023-05-01T04:32:26.132Z,947.4000
2023-05-01T04:33:26.222Z,947.4022
2023-05-01T04:34:26.338Z,947.4289
2023-05-01T04:35:26.482Z,947.4567
2023-05-01T04:36:26.619Z,947.4644
2023-05-01T04:37:26.751Z,947.4950
2023-05-01T04:38:26.864Z,947.4878
2023-05-01T04:39:27.008Z,947.4866
2023-05-01T04:40:27.125Z,947.4955
2023-05-01T04:41:27.245Z,947.5016
2023-05-01T04:42:27.358Z,947.5011
2023-05-01T04:43:27.489Z,947.5184
2023-05-01T04:44:27.646Z,947.5405
2023-05-01T04:45:27.785Z,947.5505
2023-05-01T04:46:27.932Z,947.5566
2023-05-01T04:47:28.032Z,947.5616
2023-05-01T04:48:28.141Z,947.5728
2023-05-01T04:49:28.282Z,947.5745
2023-05-01T04:50:28.399Z,947.5750
2023-05-01T04:51:28.520Z,947.5806
2023-05-01T04:52:28.640Z,947.5928
2023-05-01T04:53:28.780Z,947.5933
2023-05-01T04:54:28.921Z,947.6028
2023-05-01T04:55:31.023Z,947.6066
2023-05-01T04:56:31.333Z,947.6089
2023-05-01T04:57:31.454Z,947.6105
2023-05-01T04:58:31.571Z,947.6133
2023-05-01T04:59:31.748Z,947.6189
2023-05-01T05:00:31.901Z,947.6255
2023-05-01T05:01:32.075Z,947.6389
2023-05-01T05:02:32.285Z,947.6556
2023-05-01T05:03:32.594Z,947.6655
2023-05-01T05:04:32.730Z,947.6772
2023-05-01T05:05:32.896Z,947.6900
2023-05-01T05:06:33.070Z,947.6984
2023-05-01T05:07:33.184Z,947.6917
2023-05-01T05:08:33.309Z,947.7161
2023-05-01T05:09:33.458Z,947.7266
2023-05-01T05:10:33.586Z,947.7289
2023-05-01T05:11:33.702Z,947.7322
2023-05-01T05:12:33.834Z,947.7472
2023-05-01T05:13:33.995Z,947.7439
2023-05-01T05:14:34.109Z,947.7439
2023-05-01T05:15:34.282Z,947.7400
2023-05-01T05:16:34.458Z,947.7372
2023-05-01T05:17:34.583Z,947.7556
2023-05-01T05:18:34.689Z,947.7505
2023-05-01T05:19:34.818Z,947.7561
2023-05-01T05:20:34.947Z,947.7667
2023-05-01T05:21:35.085Z,947.7522
2023-05-01T05:22:35.206Z,947.7617
2023-05-01T05:23:35.360Z,947.7828
2023-05-01T05:24:35.489Z,947.7861
2023-05-01T05:25:35.600Z,947.7911
2023-05-01T05:26:35.729Z,947.7905
2023-05-01T05:27:35.893Z,947.7911
2023-05-01T05:28:36.003Z,947.7950
2023-05-01T05:29:36.174Z,947.7817
2023-05-01T05:30:36.278Z,947.7828
2023-05-01T05:31:36.469Z,947.7833
2023-05-01T05:32:36.660Z,947.7828
2023-05-01T05:33:36.763Z,947.7761
2023-05-01T05:34:36.870Z,947.7861
2023-05-01T05:35:37.029Z,947.8072
2023-05-01T05:36:37.134Z,947.8050
2023-05-01T05:37:37.275Z,947.8234
2023-05-01T05:38:37.395Z,947.8234
2023-05-01T05:39:37.551Z,947.8356
2023-05-01T05:40:37.664Z,947.8516
2023-05-01T05:41:37.817Z,947.8516
2023-05-01T05:42:37.938Z,947.8544
2023-05-01T05:43:38.127Z,947.8566
2023-05-01T05:44:38.303Z,947.8594
2023-05-01T05:45:38.495Z,947.8683
2023-05-01T05:46:38.726Z,947.8772
2023-05-01T05:47:38.973Z,947.8750
2023-05-01T05:48:39.235Z,947.8895
2023-05-01T05:49:39.295Z,947.8900
2023-05-01T05:50:39.419Z,947.8900
2023-05-01T05:51:39.571Z,947.8934
2023-05-01T05:52:39.704Z,947.9056
2023-05-01T05:53:39.831Z,947.9111
2023-05-01T05:54:39.967Z,947.9178
2023-05-01T05:55:40.150Z,947.9144
2023-05-01T05:56:40.299Z,947.9150
2023-05-01T05:57:40.454Z,947.9122
2023-05-01T05:58:40.579Z,947.9150
2023-05-01T05:59:40.720Z,947.9178
2023-05-01T06:00:40.846Z,947.9328
2023-05-01T06:01:40.965Z,947.9384
2023-05-01T06:02:41.160Z,947.9372
2023-05-01T06:03:41.495Z,947.9222
2023-05-01T06:04:41.762Z,947.9178
2023-05-01T06:05:41.941Z,947.9233
2023-05-01T06:06:42.080Z,947.9178
2023-05-01T06:07:42.177Z,947.9344
2023-05-01T06:08:42.303Z,947.9400
2023-05-01T06:09:42.489Z,947.9289
2023-05-01T06:10:42.604Z,947.9305
2023-05-01T06:11:43.045Z,947.9166
2023-05-01T06:12:47.051Z,947.9244
2023-05-01T06:13:45.986Z,947.9305
2023-05-01T06:14:46.099Z,947.9276
2023-05-01T06:15:46.271Z,947.9261
2023-05-01T06:16:46.370Z,947.9272
2023-05-01T06:17:46.587Z,947.9289
2023-05-01T06:18:46.703Z,947.9311
2023-05-01T06:19:46.802Z,947.8995
2023-05-01T06:20:46.933Z,947.8967
2023-05-01T06:21:47.057Z,947.8878
2023-05-01T06:22:47.195Z,947.8800
2023-05-01T06:23:47.331Z,947.8950
2023-05-01T06:24:47.448Z,947.8878
2023-05-01T06:25:47.570Z,947.8845
2023-05-01T06:26:47.707Z,947.8850
2023-05-01T06:27:47.836Z,947.8950
2023-05-01T06:28:48.000Z,947.8939
2023-05-01T06:29:48.146Z,947.8900
2023-05-01T06:30:48.271Z,947.8978
2023-05-01T06:31:48.415Z,947.8972
2023-05-01T06:32:48.611Z,947.8945
2023-05-01T06:33:48.781Z,947.8967
2023-05-01T06:34:48.914Z,947.9033
2023-05-01T06:35:49.064Z,947.8906
2023-05-01T06:36:49.192Z,947.9006
2023-05-01T06:37:49.310Z,947.8983
2023-05-01T06:38:49.460Z,947.8906
2023-05-01T06:39:49.611Z,947.9044
2023-05-01T06:40:49.731Z,947.8850
2023-05-01T06:41:49.917Z,947.8795
2023-05-01T06:42:50.083Z,947.8878
2023-05-01T06:43:50.229Z,947.9111
2023-05-01T06:44:50.342Z,947.9172
2023-05-01T06:45:50.472Z,947.9250
2023-05-01T06:46:50.708Z,947.9289
2023-05-01T06:47:50.881Z,947.9278
2023-05-01T06:48:50.992Z,947.9528
2023-05-01T06:49:51.134Z,947.9584
2023-05-01T06:50:51.270Z,947.9678
2023-05-01T06:51:51.427Z,947.9611
2023-05-01T06:52:51.574Z,947.9705
2023-05-01T06:53:51.749Z,947.9822
2023-05-01T06:54:51.940Z,947.9656
2023-05-01T06:55:52.053Z,947.9622
2023-05-01T06:56:52.242Z,947.9761
2023-05-01T06:57:52.378Z,947.9800
2023-05-01T06:58:52.521Z,948.0005
2023-05-01T06:59:52.670Z,948.0016
2023-05-01T07:00:52.846Z,948.0106
2023-05-01T07:01:52.975Z,948.0222
2023-05-01T07:02:53.219Z,948.0378
2023-05-01T07:03:54.378Z,948.0500
2023-05-01T07:04:54.517Z,948.0572
2023-05-01T07:05:54.654Z,948.0722
2023-05-01T07:06:54.843Z,948.0750
2023-05-01T07:08:01.336Z,948.0789
2023-05-01T07:08:57.765Z,948.0745
2023-05-01T07:09:58.377Z,948.0782
2023-05-01T07:10:58.737Z,948.0900
2023-05-01T07:11:58.919Z,948.0928
2023-05-01T07:12:59.061Z,948.1089
2023-05-01T07:13:59.188Z,948.1111
2023-05-01T07:14:59.328Z,948.1133
2023-05-01T07:15:59.459Z,948.1161
2023-05-01T07:16:59.649Z,948.1166
2023-05-01T07:17:59.781Z,948.1178
2023-05-01T07:18:59.912Z,948.1128
2023-05-01T07:20:00.056Z,948.1055
2023-05-01T07:21:00.224Z,948.1111
2023-05-01T07:22:00.352Z,948.1128
2023-05-01T07:23:00.511Z,948.1039
2023-05-01T07:24:00.652Z,948.1239
2023-05-01T07:25:00.760Z,948.1111
2023-05-01T07:26:00.919Z,948.1111
2023-05-01T07:27:01.070Z,948.1350
2023-05-01T07:28:01.225Z,948.1317
2023-05-01T07:29:01.369Z,948.1417
2023-05-01T07:30:01.516Z,948.1517
2023-05-01T07:31:01.671Z,948.1572
2023-05-01T07:32:01.773Z,948.1183
2023-05-01T07:33:02.022Z,948.1155
2023-05-01T07:34:02.145Z,948.1066
2023-05-01T07:35:02.299Z,948.1061
2023-05-01T07:36:02.895Z,948.1155
2023-05-01T07:37:02.954Z,948.1139
2023-05-01T07:38:03.072Z,948.1128
2023-05-01T07:39:03.216Z,948.1211
2023-05-01T07:40:03.341Z,948.1178
2023-05-01T07:41:03.522Z,948.1155
2023-05-01T07:42:03.668Z,948.1350
2023-05-01T07:43:03.789Z,948.1367
2023-05-01T07:44:03.901Z,948.1289
2023-05-01T07:45:04.073Z,948.1389
2023-05-01T07:46:04.244Z,948.1422
2023-05-01T07:47:04.339Z,948.1450
2023-05-01T07:48:04.565Z,948.1428
2023-05-01T07:49:04.676Z,948.1439
2023-05-01T07:50:04.797Z,948.1511
2023-05-01T07:51:05.117Z,948.1528
2023-05-01T07:52:05.172Z,948.1683
2023-05-01T07:53:05.335Z,948.1772
2023-05-01T07:54:05.466Z,948.2056
2023-05-01T07:55:05.667Z,948.2216
2023-05-01T07:56:05.811Z,948.2206
2023-05-01T07:57:05.953Z,948.2072
2023-05-01T07:58:06.088Z,948.2228
2023-05-01T07:59:06.242Z,948.2272
2023-05-01T08:00:06.417Z,948.2366
2023-05-01T08:01:06.541Z,948.2495
2023-05-01T08:02:06.696Z,948.2667
2023-05-01T08:03:07.094Z,948.2750
2023-05-01T08:04:08.396Z,948.2750
2023-05-01T08:05:08.536Z,948.2689
2023-05-01T08:06:08.749Z,948.2933
2023-05-01T08:07:08.939Z,948.2928
2023-05-01T08:08:09.076Z,948.3055
2023-05-01T08:09:09.178Z,948.2961
2023-05-01T08:10:09.343Z,948.3078
2023-05-01T08:11:09.462Z,948.3161
2023-05-01T08:12:09.585Z,948.3156
2023-05-01T08:13:09.706Z,948.3267
2023-05-01T08:14:09.812Z,948.3395
2023-05-01T08:15:09.926Z,948.3433
2023-05-01T08:16:10.171Z,948.3505
2023-05-01T08:17:10.292Z,948.3400
2023-05-01T08:18:10.467Z,948.3472
2023-05-01T08:19:10.596Z,948.3544
2023-05-01T08:20:10.764Z,948.3539
2023-05-01T08:21:10.893Z,948.3672
2023-05-01T08:22:11.118Z,948.3705
2023-05-01T08:23:11.180Z,948.3745
2023-05-01T08:24:11.315Z,948.3722
2023-05-01T08:25:11.472Z,948.3716
2023-05-01T08:26:11.566Z,948.3722
2023-05-01T08:27:11.737Z,948.3850
2023-05-01T08:28:11.928Z,948.3734
2023-05-01T08:29:12.053Z,948.3828
2023-05-01T08:30:12.180Z,948.3739
2023-05-01T08:31:12.392Z,948.3928
2023-05-01T08:32:12.484Z,948.3967
2023-05-01T08:33:12.707Z,948.4105
2023-05-01T08:34:12.836Z,948.3978
2023-05-01T08:35:13.009Z,948.3945
2023-05-01T08:36:13.135Z,948.3945
2023-05-01T08:37:13.267Z,948.4150
2023-05-01T08:38:13.512Z,948.4166
2023-05-01T08:39:13.590Z,948.4211
2023-05-01T08:40:13.706Z,948.4261
2023-05-01T08:41:13.851Z,948.4239
2023-05-01T08:42:13.979Z,948.4183
2023-05-01T08:43:14.105Z,948.4283
2023-05-01T08:44:14.261Z,948.4200
2023-05-01T08:45:14.429Z,948.4339
2023-05-01T08:46:14.598Z,948.4178
2023-05-01T08:47:14.820Z,948.4289
2023-05-01T08:48:14.958Z,948.4378
2023-05-01T08:49:15.079Z,948.4339
2023-05-01T08:50:15.192Z,948.4478
2023-05-01T08:51:15.331Z,948.4656
2023-05-01T08:52:15.463Z,948.4567
2023-05-01T08:53:15.585Z,948.4617
2023-05-01T08:54:15.745Z,948.4589
2023-05-01T08:55:15.848Z,948.4628
2023-05-01T08:56:15.971Z,948.4650
2023-05-01T08:57:16.112Z,948.4755
2023-05-01T08:58:16.227Z,948.4700
2023-05-01T08:59:16.374Z,948.4656
2023-05-01T09:00:16.565Z,948.4811
2023-05-01T09:01:16.737Z,948.4833
2023-05-01T09:02:16.920Z,948.4878
2023-05-01T09:03:17.140Z,948.4717
2023-05-01T09:04:17.371Z,948.4839
2023-05-01T09:05:17.512Z,948.4705
2023-05-01T09:06:17.741Z,948.4683
2023-05-01T09:07:17.850Z,948.4683
2023-05-01T09:08:17.983Z,948.4705
2023-05-01T09:09:18.125Z,948.4839
2023-05-01T09:10:18.306Z,948.5084
2023-05-01T09:11:18.441Z,948.5016
2023-05-01T09:12:18.581Z,948.5022
2023-05-01T09:13:18.753Z,948.4944
2023-05-01T09:14:18.877Z,948.5050
2023-05-01T09:15:19.021Z,948.5122
2023-05-01T09:16:19.166Z,948.5222
2023-05-01T09:17:19.371Z,948.5267
2023-05-01T09:18:19.737Z,948.5211
2023-05-01T09:19:19.877Z,948.5328
2023-05-01T09:20:20.017Z,948.5306
2023-05-01T09:21:20.139Z,948.5328
2023-05-01T09:22:20.255Z,948.5389
2023-05-01T09:23:20.426Z,948.5489
2023-05-01T09:24:20.612Z,948.5522
2023-05-01T09:25:20.737Z,948.5600
2023-05-01T09:26:20.862Z,948.5634
2023-05-01T09:27:21.022Z,948.5616
2023-05-01T09:28:21.148Z,948.5622
2023-05-01T09:29:21.274Z,948.5645
2023-05-01T09:30:21.431Z,948.5778
2023-05-01T09:31:21.628Z,948.5784
2023-05-01T09:32:21.873Z,948.5717
2023-05-01T09:33:22.083Z,948.5834
2023-05-01T09:34:22.187Z,948.6050
2023-05-01T09:35:22.314Z,948.6055
2023-05-01T09:36:22.447Z,948.6066
2023-05-01T09:37:22.580Z,948.5994
2023-05-01T09:38:22.692Z,948.5922
2023-05-01T09:39:22.805Z,948.5994
2023-05-01T09:40:22.927Z,948.6194
2023-05-01T09:41:23.102Z,948.6144
2023-05-01T09:42:23.253Z,948.6489
2023-05-01T09:43:23.385Z,948.6561
2023-05-01T09:44:23.555Z,948.6528
2023-05-01T09:45:23.738Z,948.6522
2023-05-01T09:46:23.865Z,948.6555
2023-05-01T09:47:23.969Z,948.6522
2023-05-01T09:48:24.112Z,948.6628
2023-05-01T09:49:24.233Z,948.6639
2023-05-01T09:50:24.393Z,948.6572
2023-05-01T09:51:24.561Z,948.6561
2023-05-01T09:52:24.680Z,948.6428
2023-05-01T09:53:24.954Z,948.6367
2023-05-01T09:54:25.081Z,948.6372
2023-05-01T09:55:25.790Z,948.6384
2023-05-01T09:56:26.109Z,948.6356
2023-05-01T09:57:26.245Z,948.6361
2023-05-01T09:58:26.432Z,948.6222
2023-05-01T09:59:26.548Z,948.6033
2023-05-01T10:00:26.734Z,948.6166
2023-05-01T10:01:26.866Z,948.6272
2023-05-01T10:02:27.058Z,948.6328
2023-05-01T10:03:27.331Z,948.6422
2023-05-01T10:04:27.480Z,948.6428
2023-05-01T10:05:27.698Z,948.6611
2023-05-01T10:06:27.995Z,948.6572
2023-05-01T10:07:28.112Z,948.6456
2023-05-01T10:08:28.195Z,948.6506
2023-05-01T10:09:28.313Z,948.6550
2023-05-01T10:10:28.462Z,948.6494
2023-05-01T10:11:28.708Z,948.6228
2023-05-01T10:12:28.782Z,948.6155
2023-05-01T10:13:28.898Z,948.6055
2023-05-01T10:14:29.028Z,948.5872
2023-05-01T10:15:29.143Z,948.5939
2023-05-01T10:16:29.321Z,948.6044
2023-05-01T10:17:29.489Z,948.6006
2023-05-01T10:18:29.584Z,948.5822
2023-05-01T10:19:29.708Z,948.5895
2023-05-01T10:20:29.850Z,948.5945
2023-05-01T10:21:29.965Z,948.6139
2023-05-01T10:22:30.089Z,948.6122
2023-05-01T10:23:30.194Z,948.6050
2023-05-01T10:24:30.393Z,948.6234
2023-05-01T10:25:30.503Z,948.6456
2023-05-01T10:26:30.625Z,948.6261
2023-05-01T10:27:30.763Z,948.6205
2023-05-01T10:28:30.964Z,948.6194
2023-05-01T10:29:31.063Z,948.6189
2023-05-01T10:30:31.153Z,948.6133
2023-05-01T10:31:31.334Z,948.6028
2023-05-01T10:32:31.437Z,948.6144
2023-05-01T10:33:31.569Z,948.5994
2023-05-01T10:34:31.717Z,948.5861
2023-05-01T10:35:31.878Z,948.5806
2023-05-01T10:36:32.022Z,948.5817
2023-05-01T10:37:32.119Z,948.5750
2023-05-01T10:38:32.239Z,948.5745
2023-05-01T10:39:32.378Z,948.5711
2023-05-01T10:40:32.539Z,948.5594
2023-05-01T10:41:32.671Z,948.5639
2023-05-01T10:42:32.826Z,948.5611
2023-05-01T10:43:33.921Z,948.5661
2023-05-01T10:44:34.047Z,948.5628
2023-05-01T10:45:35.896Z,948.5661
2023-05-01T10:46:36.075Z,948.5900
2023-05-01T10:47:36.241Z,948.5750
2023-05-01T10:48:36.366Z,948.5867
2023-05-01T10:49:36.488Z,948.5867
2023-05-01T10:50:36.641Z,948.5789
2023-05-01T10:51:36.741Z,948.5639
2023-05-01T10:52:36.858Z,948.5634
2023-05-01T10:53:36.979Z,948.5734
2023-05-01T10:54:37.222Z,948.5661
2023-05-01T10:55:37.388Z,948.5828
2023-05-01T10:56:37.503Z,948.5778
2023-05-01T10:57:37.646Z,948.5706
2023-05-01T10:58:37.749Z,948.5511
2023-05-01T10:59:37.940Z,948.5544
2023-05-01T11:00:38.096Z,948.5589
2023-05-01T11:01:38.268Z,948.5667
2023-05-01T11:02:38.424Z,948.5539
2023-05-01T11:03:38.514Z,948.5555
2023-05-01T11:04:38.627Z,948.5505
2023-05-01T11:05:38.928Z,948.5656
2023-05-01T11:06:39.172Z,948.5489
2023-05-01T11:07:39.364Z,948.5411
2023-05-01T11:08:39.486Z,948.5328
2023-05-01T11:09:39.608Z,948.5489
2023-05-01T11:10:39.736Z,948.5516
2023-05-01T11:11:39.855Z,948.5656
2023-05-01T11:12:39.985Z,948.5466
2023-05-01T11:13:40.166Z,948.5394
2023-05-01T11:14:40.317Z,948.5389
2023-05-01T11:15:40.412Z,948.5333
2023-05-01T11:16:40.631Z,948.5267
2023-05-01T11:17:40.965Z,948.5022
2023-05-01T11:18:41.087Z,948.5100
2023-05-01T11:19:41.218Z,948.5045
2023-05-01T11:20:41.359Z,948.4966
2023-05-01T11:21:41.468Z,948.4900
2023-05-01T11:22:41.592Z,948.4944
2023-05-01T11:23:41.708Z,948.4894
2023-05-01T11:24:41.953Z,948.4911
2023-05-01T11:25:42.085Z,948.4683
2023-05-01T11:26:42.244Z,948.4567
2023-05-01T11:27:42.320Z,948.4650
2023-05-01T11:28:42.455Z,948.4395
2023-05-01T11:29:42.559Z,948.4178
2023-05-01T11:30:42.807Z,948.4189
2023-05-01T11:31:42.970Z,948.4378
2023-05-01T11:32:43.104Z,948.4255
2023-05-01T11:33:43.285Z,948.4155
2023-05-01T11:34:43.451Z,948.4139
2023-05-01T11:35:43.618Z,948.4139
2023-05-01T11:36:43.797Z,948.4072
2023-05-01T11:37:43.949Z,948.4333
2023-05-01T11:38:44.092Z,948.4294
2023-05-01T11:39:44.265Z,948.4445
2023-05-01T11:40:44.447Z,948.4611
2023-05-01T11:41:44.602Z,948.4667
2023-05-01T11:42:44.780Z,948.4533
2023-05-01T11:43:44.952Z,948.4528
2023-05-01T11:44:45.122Z,948.4711
2023-05-01T11:45:45.329Z,948.4650
2023-05-01T11:46:45.446Z,948.4722